Terminal Aerodrome Forecast
Issued by NWS

Home | Current Version | Previous Version | Text Only | Print | Product List | Glossary On
Versions: 1 2 3 4 5 6 7 8 9 10 11 12 13 14 15
750
FTUS43 KAPX 242337
TAFAPN
TAF
KAPN 242337Z 2500/2524 21010KT P6SM BKN110 WS020/23040KT
     FM250300 22010KT P6SM SCT040 OVC090
     FM250600 27009KT P6SM VCSH OVC015
     FM250900 30010KT P6SM VCSH OVC015
     FM251500 30012G18KT P6SM BKN025
     FM252000 31013G22KT P6SM BKN030=

USA.gov is the U.S. government's official web portal to all federal, state and local government web resources and services.